Flight Track Log - Related Links

Times and Time Zones

All times are in EDT time to prevent confusion due to time zone crossing. See the UAL4093 flight status page for this flight to view local times or setup timezone preferences in your user account.

Time Position Orientation Groundspeed Altitude Reporting Facility
EDT Latitude Longitude Course Direction KTS MPH feet Rate Location/Type
Sun 05:22:02 PM 41.3131 -95.9119 86° East 174 200 1,300  Level Minneapolis Center
Sun 05:22:20 PM 41.3261 -95.9186 339° North 170 196 2,000 1,971 Climbing Minneapolis Center
Sun 05:23:12 PM 41.3689 -95.9106 North 223 257 3,600 2,000 Climbing Minneapolis Center
Sun 05:24:14 PM 41.4028 -95.8322 60° Northeast 260 299 5,800 2,419 Climbing Minneapolis Center
Sun 05:25:00 PM 41.3404 -95.2755 84° East  Level FlightAware Approximate
Sun 05:25:16 PM 41.4056 -95.7267 88° East 275 316 8,600  Level Minneapolis Center
Sun 05:26:00 PM 41.3515 -95.1231 86° East  Level FlightAware Approximate
Sun 05:26:17 PM 41.4081 -95.6175 88° East 285 328 10,900  Level Minneapolis Center
Sun 05:27:00 PM 41.3601 -94.9704 86° East  Level FlightAware Approximate
Sun 05:27:19 PM 41.4106 -95.4992 88° East 300 345 13,300  Level Minneapolis Center
Sun 05:28:21 PM 41.4131 -95.3503 89° East 332 382 15,000 829 Climbing Minneapolis Center
Sun 05:29:22 PM 41.4153 -95.2064 89° East 379 436 15,000  Level Minneapolis Center
Sun 05:30:24 PM 41.4183 -95.0528 88° East 408 470 15,000 585 Level Minneapolis Center
Sun 05:31:25 PM 41.4206 -94.8994 89° East 396 456 16,200 1,561 Climbing Minneapolis Center
Sun 05:32:27 PM 41.4247 -94.7569 88° East 405 466 18,200 1,694 Climbing Minneapolis Center
Sun 05:33:29 PM 41.4456 -94.6008 80° East 424 488 19,700 1,378 Climbing Minneapolis Center
Sun 05:34:42 PM 41.4689 -94.4400 79° East 438 504 21,300 1,689 Climbing Minneapolis Center
Sun 05:35:44 PM 41.4881 -94.2103 84° East 446 513 23,500 1,805 Climbing Minneapolis Center
Sun 05:36:45 PM 41.5017 -94.0656 83° East 445 512 25,000 1,610 Climbing Minneapolis Center
Sun 05:37:47 PM 41.5156 -93.9031 83° East 444 511 26,800 1,742 Climbing Minneapolis Center
Sun 05:38:49 PM 41.5294 -93.7456 83° East 436 502 28,600 1,854 Climbing Minneapolis Center
Sun 05:39:50 PM 41.5461 -93.5617 83° East 424 488 30,600 1,707 Climbing Minneapolis Center
Sun 05:40:52 PM 41.5589 -93.4086 84° East 419 482 32,100 1,463 Climbing Minneapolis Center
Sun 05:41:53 PM 41.5711 -93.2594 84° East 411 473 33,600 1,463 Climbing Minneapolis Center
Sun 05:42:55 PM 41.5833 -93.1156 83° East 400 460 35,100 1,268 Climbing Minneapolis Center
Sun 05:43:56 PM 41.5947 -92.9767 84° East 387 445 36,200 829 Climbing Minneapolis Center
Sun 05:44:58 PM 41.6056 -92.8408 84° East 376 433 36,800 390 Climbing Minneapolis Center
Sun 05:45:59 PM 41.6192 -92.6728 84° East 379 436 37,000 98 Climbing Minneapolis Center
Sun 05:47:01 PM 41.6311 -92.5269 84° East 389 448 37,000  Level Minneapolis Center
Sun 05:48:02 PM 41.6425 -92.3733 84° East 405 466 37,000  Level Minneapolis Center
Sun 05:49:12 PM 41.6556 -92.1906 84° East 436 502 37,000  Level Chicago Center
Sun 05:50:14 PM 41.6672 -92.0253 85° East 448 516 37,000  Level Chicago Center
Sun 05:51:16 PM 41.6794 -91.8558 84° East 460 529 37,000  Level Chicago Center
Sun 05:52:18 PM 41.6936 -91.6494 85° East 469 540 37,000  Level Chicago Center
Sun 05:53:20 PM 41.7058 -91.4750 85° East 475 547 37,000  Level Chicago Center
Sun 05:54:21 PM 41.7164 -91.3044 85° East 471 542 37,000  Level Chicago Center
Sun 05:55:23 PM 41.7272 -91.1314 85° East 471 542 37,000  Level Chicago Center
Sun 05:56:25 PM 41.7408 -90.9236 85° East 473 544 37,000  Level Chicago Center
Sun 05:57:27 PM 41.7517 -90.7475 85° East 480 552 37,000  Level Chicago Center
Sun 05:58:29 PM 41.7608 -90.5733 86° East 485 558 37,000  Level Chicago Center
Sun 05:59:31 PM 41.7728 -90.3928 85° East 487 560 37,000  Level Chicago Center
Sun 06:00:33 PM 41.7825 -90.2111 86° East 487 560 37,000  Level Chicago Center
Sun 06:01:35 PM 41.7925 -90.0297 86° East 487 560 37,000  Level Chicago Center
Sun 06:02:37 PM 41.8028 -89.8242 86° East 474 545 37,000  Level Chicago Center
Sun 06:03:39 PM 41.8131 -89.6469 85° East 477 549 37,000  Level Chicago Center
Sun 06:04:41 PM 41.8214 -89.4678 86° East 483 556 37,000  Level Chicago Center
Sun 06:05:42 PM 41.8306 -89.2875 86° East 486 559 37,000  Level Chicago Center
Sun 06:06:44 PM 41.8381 -89.1072 87° East 487 560 37,000  Level Chicago Center
Sun 06:07:46 PM 41.8486 -88.8894 86° East 489 563 37,000  Level Chicago Center
Sun 06:08:48 PM 41.8558 -88.7086 87° East 486 559 37,000  Level Chicago Center
Sun 06:09:50 PM 41.8636 -88.5278 87° East 486 559 37,000  Level Chicago Center
Sun 06:10:52 PM 41.8711 -88.3467 87° East 486 559 37,000  Level Chicago Center
Sun 06:11:54 PM 41.8781 -88.1642 87° East 488 562 37,000  Level Chicago Center
Sun 06:12:56 PM 41.8836 -87.9822 88° East 487 560 37,000  Level Chicago Center
Sun 06:13:58 PM 41.8911 -87.7989 87° East 490 564 37,000  Level Chicago Center
Sun 06:15:00 PM 41.8981 -87.5789 87° East 491 565 37,000  Level Chicago Center
Sun 06:16:02 PM 41.9042 -87.3931 87° East 497 572 37,000  Level Chicago Center
Sun 06:17:04 PM 41.9094 -87.2069 88° East 501 577 37,000  Level Chicago Center
Sun 06:18:06 PM 41.9150 -87.0233 88° East 495 570 37,000  Level Chicago Center
Sun 06:19:08 PM 41.9186 -86.8389 88° East 496 571 37,000  Level Chicago Center
Sun 06:20:10 PM 41.9247 -86.6272 88° East 495 570 37,000  Level Chicago Center
Sun 06:21:12 PM 41.9286 -86.4433 88° East 495 570 37,000  Level Chicago Center
Sun 06:22:14 PM 41.9339 -86.2606 88° East 494 568 37,000  Level Chicago Center
Sun 06:23:16 PM 41.9361 -86.0767 89° East 492 566 37,000  Level Chicago Center
Sun 06:24:18 PM 41.9400 -85.8931 88° East 493 567 37,000  Level Chicago Center
Sun 06:25:20 PM 41.9442 -85.7064 88° East 496 571 37,000  Level Chicago Center
Sun 06:26:22 PM 41.9472 -85.5167 89° East 502 578 37,000  Level Chicago Center
Sun 06:27:25 PM 41.9503 -85.2900 89° East 500 575 37,000  Level Chicago Center
Sun 06:27:47 PM 41.9550 -85.2383 83° East 494 568 37,000  Level Cleveland Center
Sun 06:28:47 PM 41.9542 -85.0511 90° East 499 574 37,000 -300 Level Cleveland Center
Sun 06:29:47 PM 41.9528 -84.8694 91° East 492 566 36,400 -800 Descending Cleveland Center
Sun 06:30:47 PM 41.9514 -84.6794 90° East 499 574 35,400 -1,400 Descending Cleveland Center
Sun 06:31:47 PM 41.9494 -84.4950 91° East 499 574 33,600 -1,750 Descending Cleveland Center
Sun 06:32:47 PM 41.9489 -84.3247 90° East 478 550 31,900 -1,300 Descending Cleveland Center
Sun 06:33:47 PM 41.9403 -84.1342 93° East 467 537 31,000 -450 Descending Cleveland Center
Sun 06:34:47 PM 41.9394 -83.9583 90° East 467 537 31,000  Level Cleveland Center
Sun 06:35:47 PM 41.9361 -83.7794 91° East 467 537 31,000  Level Cleveland Center
Sun 06:36:47 PM 41.9347 -83.6061 91° East 467 537 31,000  Level Cleveland Center
Sun 06:37:47 PM 41.9306 -83.4469 92° East 473 544 31,000  Level Cleveland Center
Sun 06:38:47 PM 41.9325 -83.2711 89° East 468 539 31,000  Level Cleveland Center
Sun 06:39:47 PM 41.9303 -83.0953 91° East 468 539 31,000  Level Cleveland Center
Sun 06:40:47 PM 41.9300 -82.9164 90° East 468 539 31,000  Level Cleveland Center
Sun 06:41:47 PM 41.9272 -82.7406 91° East 473 544 31,000  Level Cleveland Center
Sun 06:42:47 PM 41.9261 -82.5675 90° East 473 544 31,000  Level Cleveland Center
Sun 06:43:47 PM 41.9247 -82.3917 91° East 473 544 31,000  Level Cleveland Center
Sun 06:44:47 PM 41.9233 -82.2128 91° East 473 544 31,000  Level Cleveland Center
Sun 06:45:47 PM 41.9197 -82.0203 91° East 473 544 31,000  Level Cleveland Center
Sun 06:46:47 PM 41.9156 -81.8417 92° East 478 550 31,000  Level Cleveland Center
Sun 06:47:47 PM 41.9028 -81.6628 95° East 483 556 31,000  Level Cleveland Center
Sun 06:48:47 PM 41.8856 -81.4839 97° East 478 550 31,000  Level Cleveland Center
Sun 06:49:47 PM 41.8681 -81.3081 98° East 483 556 31,000  Level Cleveland Center
Sun 06:50:47 PM 41.8544 -81.1464 96° East 478 550 31,000  Level Cleveland Center
Sun 06:51:47 PM 41.8364 -80.9706 98° East 483 556 31,000  Level Cleveland Center
Sun 06:52:47 PM 41.8200 -80.7894 97° East 483 556 31,000  Level Cleveland Center
Sun 06:53:47 PM 41.8036 -80.6111 97° East 483 556 31,000  Level Cleveland Center
Sun 06:54:47 PM 41.7847 -80.4328 98° East 483 556 31,000  Level Cleveland Center
Sun 06:55:47 PM 41.7678 -80.2492 97° East 483 556 31,000  Level Cleveland Center
Sun 06:56:47 PM 41.7461 -80.0544 98° East 483 556 31,000  Level Cleveland Center
Sun 06:57:47 PM 41.7286 -79.8736 97° East 493 567 31,000  Level Cleveland Center
Sun 06:58:47 PM 41.7083 -79.6903 98° East 493 567 31,000 -200 Level Cleveland Center
Sun 06:59:47 PM 41.6922 -79.5125 97° East 485 558 30,600 -650 Descending Cleveland Center
Sun 07:00:47 PM 41.6717 -79.3322 99° East 485 558 29,700 -800 Descending Cleveland Center
Sun 07:01:47 PM 41.6486 -79.1464 99° East 491 565 29,000 -350 Descending Cleveland Center
Sun 07:02:47 PM 41.6297 -78.9664 98° East 496 571 29,000  Level Cleveland Center
Sun 07:03:47 PM 41.6081 -78.7808 99° East 496 571 29,000  Level Cleveland Center
Sun 07:04:47 PM 41.5883 -78.5981 98° East 502 578 29,000  Level Cleveland Center
Sun 07:06:36 PM 41.5492 -78.2722 99° East 487 560 29,000  Level New York Center
Sun 07:07:34 PM 41.5272 -78.0869 99° East 510 587 29,000  Level New York Center
Sun 07:08:34 PM 41.5011 -77.8983 100° East 504 580 29,000 -198 Level New York Center
Sun 07:09:35 PM 41.4767 -77.7128 100° East 509 586 28,600 -393 Descending New York Center
Sun 07:10:36 PM 41.4500 -77.5275 101° East 509 586 28,200 -295 Descending New York Center
Sun 07:11:37 PM 41.4208 -77.3392 102° East 514 592 28,000 -100 Descending New York Center
Sun 07:12:36 PM 41.3936 -77.1539 101° East 514 592 28,000 -300 Level New York Center
Sun 07:13:37 PM 41.3658 -76.9686 101° East 514 592 27,400 -807 Descending New York Center
Sun 07:14:35 PM 41.3375 -76.7892 102° East 514 592 26,400 -1,128 Descending New York Center
Sun 07:15:34 PM 41.2942 -76.6169 108° East 504 580 25,200 -1,289 Descending New York Center
Sun 07:16:36 PM 41.2483 -76.4472 110° East 493 567 23,800 -1,835 Descending New York Center
Sun 07:17:35 PM 41.2039 -76.2808 109° East 482 555 21,500 -2,521 Descending New York Center
Sun 07:18:35 PM 41.1633 -76.1231 109° East 462 532 18,800 -2,281 Descending New York Center
Sun 07:19:36 PM 41.1219 -75.9739 110° East 447 514 16,900 -1,736 Descending New York Center
Sun 07:20:36 PM 41.0806 -75.8247 110° East 432 497 15,300 -1,576 Descending New York Center
Sun 07:21:34 PM 41.0467 -75.6931 109° East 432 497 13,800 -1,322 Descending New York Center
Sun 07:22:34 PM 41.0011 -75.5331 111° Southeast 427 491 12,700 -1,438 Descending New York Center
Sun 07:23:35 PM 40.9625 -75.4039 112° Southeast 417 480 10,900 -1,328 Descending New York Center
Sun 07:24:36 PM 40.9258 -75.2694 110° East 373 429 10,000 -1,160 Descending New York Center
Sun 07:25:34 PM 40.8947 -75.1550 110° East 339 390 8,600 -1,373 Descending New York Center
Sun 07:26:34 PM 40.8633 -75.0486 111° Southeast 321 369 7,300 -793 Descending New York Center
Sun 07:27:35 PM 40.8519 -74.9547 99° East 298 343 7,000 -149 Descending New York Center
Sun 07:28:35 PM 40.8500 -74.8339 91° East 293 337 7,000 -446 Level New York Center
Sun 07:29:36 PM 40.8719 -74.7444 72° East 283 326 6,100 -504 Descending New York Center
Sun 07:30:34 PM 40.8694 -74.6319 92° East 272 313 6,000 -68 Descending New York Center
Sun 07:31:04 PM 40.8500 -74.5833 118° Southeast 283 326 6,000  Level New York TRACON
Sun 07:32:04 PM 40.7833 -74.5500 159° South 273 314 6,000 -450 Level New York TRACON
Sun 07:33:04 PM 40.7167 -74.5500 180° South 251 289 5,100 -500 Descending New York TRACON
Sun 07:34:04 PM 40.6500 -74.5667 191° South 258 297 5,000 -50 Descending New York TRACON
Sun 07:35:04 PM 40.5833 -74.5167 150° Southeast 275 316 5,000 -550 Level New York TRACON
Sun 07:36:04 PM 40.5167 -74.4833 159° South 255 293 3,900 -1,000 Descending New York TRACON
Sun 07:37:04 PM 40.4833 -74.4000 118° Southeast 264 304 3,000 -450 Descending New York TRACON
Sun 07:38:04 PM 40.5000 -74.3333 72° East 229 264 3,000  Level New York TRACON
Sun 07:38:58 PM 40.5333 -74.2667 57° Northeast 230 265 3,000 -500 Level New York TRACON
Sun 07:40:04 PM 40.6000 -74.2333 21° North 191 220 2,000 -857 Descending New York TRACON
Sun 07:41:04 PM 40.6333 -74.2000 37° Northeast 138 159 1,200 -789 Descending New York TRACON
Sun 07:41:58 PM 40.6667 -74.1833 21° North 135 155 500 -778 Descending New York TRACON

Login

Don't have an account? Register now (free) for customized features, flight alerts, and more!